createdAt,value
2023-02-08T00:01:01.086Z,64.35
2023-02-08T00:03:29.270Z,60.35
2023-02-08T00:05:57.153Z,58.85
2023-02-08T00:08:24.716Z,59.22
2023-02-08T00:10:52.662Z,59.08
2023-02-08T00:13:20.348Z,60.25
2023-02-08T00:15:48.601Z,61.72
2023-02-08T00:18:16.282Z,64.32
2023-02-08T00:20:44.539Z,61.88
2023-02-08T00:23:13.329Z,63.13
2023-02-08T00:25:42.132Z,67.55
2023-02-08T00:28:14.390Z,65.10
2023-02-08T00:30:44.004Z,60.35
2023-02-08T00:33:12.418Z,57.53
2023-02-08T00:35:42.277Z,59.13
2023-02-08T00:38:09.953Z,63.13
2023-02-08T00:40:37.753Z,66.40
2023-02-08T00:43:06.857Z,65.97
2023-02-08T00:45:35.690Z,68.82
2023-02-08T00:48:03.538Z,60.55
2023-02-08T00:50:31.147Z,65.03
2023-02-08T00:52:59.964Z,66.45
2023-02-08T00:55:27.559Z,66.22
2023-02-08T00:57:55.617Z,62.80
2023-02-08T01:00:23.704Z,65.60
2023-02-08T01:02:51.489Z,62.33
2023-02-08T01:05:19.231Z,68.18
2023-02-08T01:07:47.114Z,65.03
2023-02-08T01:10:14.976Z,63.58
2023-02-08T01:12:42.793Z,63.67
2023-02-08T01:15:10.412Z,55.45
2023-02-08T01:17:39.796Z,61.13
2023-02-08T01:20:07.832Z,68.55
2023-02-08T01:22:37.034Z,64.75
2023-02-08T01:25:04.821Z,57.00
2023-02-08T01:27:32.642Z,59.55
2023-02-08T01:30:00.201Z,61.17
2023-02-08T01:32:29.485Z,62.70
2023-02-08T01:34:57.232Z,60.60
2023-02-08T01:37:25.130Z,64.50
2023-02-08T01:39:52.644Z,64.45
2023-02-08T01:42:22.477Z,60.35
2023-02-08T01:45:20.816Z,65.85
2023-02-08T01:47:55.104Z,62.15
2023-02-08T01:50:26.489Z,64.68
2023-02-08T01:52:54.437Z,60.88
2023-02-08T01:55:38.112Z,67.95
2023-02-08T01:58:10.047Z,65.38
2023-02-08T02:00:37.912Z,60.63
2023-02-08T02:03:07.286Z,64.25
2023-02-08T02:05:45.345Z,63.65
2023-02-08T02:08:13.561Z,63.10
2023-02-08T02:10:42.593Z,59.25
2023-02-08T02:13:18.444Z,62.35
2023-02-08T02:15:46.497Z,63.33
2023-02-08T02:18:23.223Z,64.22
2023-02-08T02:20:53.832Z,64.28
2023-02-08T02:23:42.949Z,71.05
2023-02-08T02:26:38.530Z,66.82
2023-02-08T02:29:22.734Z,64.40
2023-02-08T02:32:12.325Z,68.80
2023-02-08T02:34:43.112Z,67.55
2023-02-08T02:37:14.303Z,62.97
2023-02-08T02:40:15.135Z,66.97
2023-02-08T02:43:30.676Z,65.18
2023-02-08T02:46:13.925Z,66.20
2023-02-08T02:49:01.752Z,69.75
2023-02-08T02:52:01.200Z,72.00
2023-02-08T02:54:42.267Z,62.33
2023-02-08T02:57:16.330Z,65.45
2023-02-08T02:59:46.760Z,62.28
2023-02-08T03:02:15.002Z,64.50
2023-02-08T03:04:42.521Z,66.38
2023-02-08T03:07:32.012Z,62.63
2023-02-08T03:10:17.803Z,65.53
2023-02-08T03:12:58.605Z,65.10
2023-02-08T03:15:51.500Z,60.38
2023-02-08T03:18:35.059Z,64.57
2023-02-08T03:21:08.262Z,66.85
2023-02-08T03:24:07.582Z,66.13
2023-02-08T03:26:50.467Z,66.43
2023-02-08T03:29:37.196Z,64.18
2023-02-08T03:32:17.202Z,66.75
2023-02-08T03:34:48.081Z,69.05
2023-02-08T03:37:35.878Z,79.47
2023-02-08T03:40:14.033Z,66.25
2023-02-08T03:42:43.012Z,69.75
2023-02-08T03:45:20.472Z,68.25
2023-02-08T03:47:52.450Z,70.15
2023-02-08T03:50:23.122Z,65.78
2023-02-08T03:52:52.237Z,71.85
2023-02-08T03:55:31.148Z,73.72
2023-02-08T03:58:05.119Z,69.65
2023-02-08T04:00:39.528Z,62.17
2023-02-08T04:03:17.428Z,66.13
2023-02-08T04:05:45.558Z,66.63
2023-02-08T04:08:13.355Z,68.75
2023-02-08T04:10:41.435Z,79.88
2023-02-08T04:13:09.166Z,74.70
2023-02-08T04:15:37.082Z,76.28
2023-02-08T04:18:05.569Z,79.75
2023-02-08T04:20:33.489Z,69.70
2023-02-08T04:23:01.090Z,81.55
2023-02-08T04:25:29.108Z,71.20
2023-02-08T04:27:56.923Z,70.43
2023-02-08T04:30:24.809Z,75.28
2023-02-08T04:32:52.358Z,75.00
2023-02-08T04:35:20.202Z,75.75
2023-02-08T04:37:47.964Z,79.38
2023-02-08T04:40:15.837Z,83.38
2023-02-08T04:42:43.451Z,89.18
2023-02-08T04:45:11.391Z,80.38
2023-02-08T04:47:39.058Z,70.93
2023-02-08T04:50:07.122Z,76.30
2023-02-08T04:52:34.739Z,70.88
2023-02-08T04:55:02.696Z,69.05
2023-02-08T04:57:30.270Z,64.10
2023-02-08T05:00:00.272Z,63.30
2023-02-08T05:02:28.185Z,64.38
2023-02-08T05:04:56.168Z,65.20
2023-02-08T05:07:23.957Z,58.78
2023-02-08T05:09:51.802Z,58.60
2023-02-08T05:12:19.292Z,52.38
2023-02-08T05:14:47.162Z,56.70
2023-02-08T05:17:14.726Z,57.22
2023-02-08T05:19:42.541Z,57.88
2023-02-08T05:22:10.136Z,57.58
2023-02-08T05:24:37.927Z,59.15
2023-02-08T05:27:05.515Z,54.90
2023-02-08T05:29:33.398Z,56.05
2023-02-08T05:32:01.211Z,56.30
2023-02-08T05:34:29.080Z,56.80
2023-02-08T05:36:56.767Z,47.13
2023-02-08T05:39:24.582Z,57.28
2023-02-08T05:41:52.213Z,53.22
2023-02-08T05:44:20.167Z,56.35
2023-02-08T05:46:47.851Z,60.58
2023-02-08T05:49:15.740Z,61.33
2023-02-08T05:51:43.453Z,58.50
2023-02-08T05:54:11.477Z,61.72
2023-02-08T05:56:39.109Z,64.28
2023-02-08T05:59:06.994Z,56.63
2023-02-08T06:01:34.558Z,54.95
2023-02-08T06:04:02.573Z,48.67
2023-02-08T06:06:30.449Z,52.97
2023-02-08T06:08:58.326Z,48.65
2023-02-08T06:11:25.866Z,49.70
2023-02-08T06:13:53.754Z,53.97
2023-02-08T06:16:21.451Z,54.88
2023-02-08T06:18:49.513Z,51.78
2023-02-08T06:21:17.104Z,55.83
2023-02-08T06:23:45.097Z,48.00
2023-02-08T06:26:12.765Z,51.17
2023-02-08T06:28:40.734Z,51.80
2023-02-08T06:31:08.395Z,53.00
2023-02-08T06:33:36.265Z,54.47
2023-02-08T06:36:04.037Z,54.22
2023-02-08T06:38:32.054Z,47.33
2023-02-08T06:40:59.627Z,58.55
2023-02-08T06:43:27.658Z,45.35
2023-02-08T06:45:55.270Z,56.92
2023-02-08T06:48:23.211Z,54.88
2023-02-08T06:50:53.839Z,51.63
2023-02-08T06:53:21.704Z,54.22
2023-02-08T06:55:52.717Z,63.88
2023-02-08T06:58:21.028Z,48.78
2023-02-08T07:00:48.904Z,50.90
2023-02-08T07:03:17.736Z,43.47
2023-02-08T07:06:03.461Z,37.95
2023-02-08T07:08:33.788Z,41.28
2023-02-08T07:11:05.725Z,43.53
2023-02-08T07:13:33.558Z,35.95
2023-02-08T07:16:01.179Z,39.97
2023-02-08T07:18:29.086Z,39.83
2023-02-08T07:20:56.870Z,45.25
2023-02-08T07:23:25.118Z,40.22
2023-02-08T07:26:05.525Z,37.25
2023-02-08T07:28:33.722Z,28.35
2023-02-08T07:31:05.333Z,31.25
2023-02-08T07:33:33.214Z,28.38
2023-02-08T07:36:01.083Z,29.52
2023-02-08T07:38:28.953Z,29.00
2023-02-08T07:41:08.244Z,29.25
2023-02-08T07:43:37.819Z,30.13
2023-02-08T07:46:12.263Z,26.85
2023-02-08T07:51:09.028Z,25.50
2023-02-08T07:53:37.261Z,29.90
2023-02-08T07:56:05.497Z,26.88
2023-02-08T07:58:33.628Z,24.65
2023-02-08T08:01:07.046Z,25.52
2023-02-08T08:03:44.155Z,29.30
2023-02-08T08:06:11.715Z,23.45
2023-02-08T08:08:39.794Z,23.67
2023-02-08T08:11:07.367Z,22.98
2023-02-08T08:13:35.270Z,23.98
2023-02-08T08:16:02.866Z,24.10
2023-02-08T08:18:31.408Z,20.95
2023-02-08T08:20:58.925Z,24.75
2023-02-08T08:23:29.113Z,24.17
2023-02-08T08:25:56.844Z,18.60
2023-02-08T08:28:24.924Z,19.05
2023-02-08T08:30:52.760Z,20.67
2023-02-08T08:33:21.145Z,17.23
2023-02-08T08:35:49.079Z,16.25
2023-02-08T08:38:17.002Z,18.13
2023-02-08T08:40:44.600Z,18.85
2023-02-08T08:43:12.428Z,17.30
2023-02-08T08:45:39.957Z,19.30
2023-02-08T08:48:07.827Z,12.88
2023-02-08T08:50:35.462Z,19.67
2023-02-08T08:53:03.304Z,21.80
2023-02-08T08:55:31.166Z,17.20
2023-02-08T08:57:59.019Z,17.23
2023-02-08T09:00:27.297Z,16.77
2023-02-08T09:02:55.204Z,18.13
2023-02-08T09:05:22.998Z,17.73
2023-02-08T09:07:50.952Z,17.15
2023-02-08T09:10:18.729Z,17.95
2023-02-08T09:12:46.739Z,16.60
2023-02-08T09:15:14.394Z,20.20
2023-02-08T09:17:42.273Z,17.58
2023-02-08T09:20:10.782Z,18.38
2023-02-08T09:22:38.585Z,14.05
2023-02-08T09:25:07.750Z,16.02
2023-02-08T09:27:36.267Z,14.63
2023-02-08T09:30:05.954Z,14.77
2023-02-08T09:32:34.549Z,14.07
2023-02-08T09:35:02.745Z,15.23
2023-02-08T09:37:30.945Z,16.20
2023-02-08T09:40:00.259Z,14.82
2023-02-08T09:42:38.628Z,13.15
2023-02-08T09:45:36.706Z,13.60
2023-02-08T09:48:15.494Z,16.98
2023-02-08T09:50:52.892Z,13.15
2023-02-08T09:53:35.168Z,16.25
2023-02-08T09:56:07.380Z,14.23
2023-02-08T09:58:49.877Z,12.32
2023-02-08T10:01:21.788Z,10.25
2023-02-08T10:03:53.723Z,11.30
2023-02-08T10:06:22.008Z,12.00
2023-02-08T10:08:52.463Z,12.50
2023-02-08T10:11:28.926Z,10.45
2023-02-08T10:14:18.282Z,8.20
2023-02-08T10:16:55.087Z,8.95
2023-02-08T10:19:42.307Z,6.82
2023-02-08T10:22:25.084Z,8.05
2023-02-08T10:25:04.982Z,6.97
2023-02-08T10:27:58.528Z,4.30
2023-02-08T10:30:26.444Z,9.90
2023-02-08T10:33:06.697Z,6.70
2023-02-08T10:35:44.510Z,6.55
2023-02-08T10:38:44.088Z,8.20
2023-02-08T10:41:20.728Z,2.63
2023-02-08T10:44:14.230Z,6.68
2023-02-08T10:46:52.165Z,4.05
2023-02-08T10:49:31.616Z,5.65
2023-02-08T10:51:59.748Z,6.07
2023-02-08T10:54:27.382Z,4.80
2023-02-08T10:57:05.906Z,6.05
2023-02-08T10:59:46.248Z,5.95
2023-02-08T11:02:40.973Z,7.30
2023-02-08T11:05:13.460Z,6.10
2023-02-08T11:07:41.735Z,4.53
2023-02-08T11:10:21.183Z,5.97
2023-02-08T11:13:15.788Z,5.22
2023-02-08T11:15:52.676Z,5.35
2023-02-08T11:18:33.806Z,5.88
2023-02-08T11:21:20.905Z,7.80
2023-02-08T11:23:52.847Z,7.72
2023-02-08T11:26:33.267Z,8.32
2023-02-08T11:29:06.039Z,10.15
2023-02-08T11:31:36.165Z,7.70
2023-02-08T11:34:10.588Z,8.32
2023-02-08T11:36:47.523Z,7.03
2023-02-08T11:39:25.965Z,8.40
2023-02-08T11:41:58.207Z,8.77
2023-02-08T11:44:34.045Z,9.02
2023-02-08T11:47:05.625Z,9.27
2023-02-08T11:49:43.049Z,8.35
2023-02-08T11:52:21.517Z,7.40
2023-02-08T11:54:49.408Z,9.75
2023-02-08T11:57:19.263Z,6.43
2023-02-08T11:59:48.495Z,7.47
2023-02-08T12:02:37.343Z,7.53
2023-02-08T12:05:13.596Z,7.00
2023-02-08T12:07:57.680Z,8.27
2023-02-08T12:10:45.375Z,6.00
2023-02-08T12:13:39.205Z,7.38
2023-02-08T12:16:34.423Z,7.82
2023-02-08T12:19:05.048Z,10.02
2023-02-08T12:21:45.267Z,5.70
2023-02-08T12:24:35.119Z,7.45
2023-02-08T12:27:27.567Z,7.50
2023-02-08T12:30:16.946Z,6.78
2023-02-08T12:33:06.283Z,6.25
2023-02-08T12:36:02.756Z,6.85
2023-02-08T12:39:01.737Z,6.25
2023-02-08T12:41:49.129Z,7.00
2023-02-08T12:44:43.937Z,6.65
2023-02-08T12:50:17.076Z,7.78
2023-02-08T12:52:52.078Z,7.03
2023-02-08T12:55:29.317Z,10.90
2023-02-08T12:58:03.235Z,6.28
2023-02-08T13:00:35.133Z,8.95
2023-02-08T13:03:34.057Z,8.65
2023-02-08T13:06:07.978Z,9.27
2023-02-08T13:08:49.563Z,7.40
2023-02-08T13:11:45.434Z,6.50
2023-02-08T13:14:25.602Z,7.05
2023-02-08T13:16:58.560Z,7.07
2023-02-08T13:19:59.759Z,11.65
2023-02-08T13:22:34.749Z,5.90
2023-02-08T13:25:07.834Z,6.47
2023-02-08T13:30:05.506Z,6.35
2023-02-08T13:32:45.003Z,7.60
2023-02-08T13:35:18.146Z,7.93
2023-02-08T13:37:55.513Z,9.10
2023-02-08T13:40:30.318Z,7.78
2023-02-08T13:43:02.644Z,6.07
2023-02-08T13:45:38.046Z,8.63
2023-02-08T13:48:08.745Z,7.95
2023-02-08T13:50:59.149Z,9.23
2023-02-08T13:53:39.085Z,9.80
2023-02-08T13:56:11.327Z,9.43
2023-02-08T13:58:57.670Z,10.65
2023-02-08T14:01:28.870Z,9.00
2023-02-08T14:04:09.830Z,8.10
2023-02-08T14:07:00.536Z,8.23
2023-02-08T14:10:02.872Z,8.75
2023-02-08T14:12:54.375Z,9.30
2023-02-08T14:15:32.078Z,9.07
2023-02-08T14:18:01.321Z,10.93
2023-02-08T14:20:40.030Z,8.73
2023-02-08T14:23:22.155Z,9.75
2023-02-08T14:25:53.499Z,11.18
2023-02-08T14:28:45.935Z,9.70
2023-02-08T14:31:17.263Z,8.77
2023-02-08T14:33:55.360Z,9.18
2023-02-08T14:36:34.764Z,7.38
2023-02-08T14:39:24.415Z,12.20
2023-02-08T14:42:03.842Z,10.20
2023-02-08T14:44:43.445Z,10.40
2023-02-08T14:47:31.578Z,11.48
2023-02-08T14:50:15.676Z,10.48
2023-02-08T14:52:52.712Z,11.52
2023-02-08T14:55:27.699Z,10.85
2023-02-08T14:57:58.049Z,9.93
2023-02-08T15:00:32.645Z,11.70
2023-02-08T15:03:02.153Z,9.57
2023-02-08T15:05:44.153Z,10.85
2023-02-08T15:08:12.885Z,11.15
2023-02-08T15:10:45.161Z,12.73
2023-02-08T15:13:22.175Z,10.95
2023-02-08T15:15:54.387Z,11.38
2023-02-08T15:18:40.833Z,13.35
2023-02-08T15:21:20.592Z,13.07
2023-02-08T15:24:13.049Z,14.73
2023-02-08T15:26:52.489Z,15.05
2023-02-08T15:29:42.950Z,15.48
2023-02-08T15:32:18.960Z,15.85
2023-02-08T15:34:56.222Z,14.65
2023-02-08T15:37:24.574Z,15.95
2023-02-08T15:39:55.985Z,14.80
2023-02-08T15:42:26.860Z,13.52
2023-02-08T15:44:55.160Z,16.10
2023-02-08T15:47:31.537Z,16.25
2023-02-08T15:50:00.370Z,15.10
2023-02-08T15:52:34.648Z,14.73
2023-02-08T15:55:05.965Z,17.38
2023-02-08T15:57:36.774Z,18.20
2023-02-08T16:00:18.095Z,14.82
2023-02-08T16:02:52.537Z,17.15
2023-02-08T16:05:27.295Z,15.77
2023-02-08T16:07:56.065Z,23.20
2023-02-08T16:10:39.162Z,25.77
2023-02-08T16:13:22.574Z,22.98
2023-02-08T16:16:03.834Z,21.35
2023-02-08T16:18:50.047Z,20.08
2023-02-08T16:21:39.758Z,21.10
2023-02-08T16:24:13.563Z,41.10
2023-02-08T16:26:59.645Z,58.30
2023-02-08T16:29:34.934Z,75.55
2023-02-08T16:32:26.499Z,55.58
2023-02-08T16:34:54.522Z,41.28
2023-02-08T16:37:32.118Z,44.47
2023-02-08T16:40:02.650Z,44.35
2023-02-08T16:42:35.916Z,60.80
2023-02-08T16:45:16.379Z,124.68
2023-02-08T16:47:50.565Z,75.82
2023-02-08T16:50:25.347Z,57.63
2023-02-08T16:53:01.382Z,52.50
2023-02-08T16:55:32.838Z,73.50
2023-02-08T16:58:00.983Z,88.50
2023-02-08T17:00:34.862Z,90.28
2023-02-08T17:03:02.738Z,102.10
2023-02-08T17:05:35.530Z,110.93
2023-02-08T17:08:07.988Z,125.40
2023-02-08T17:10:35.730Z,126.45
2023-02-08T17:13:19.472Z,113.20
2023-02-08T17:15:49.611Z,73.57
2023-02-08T17:18:18.208Z,76.00
2023-02-08T17:20:46.706Z,45.83
2023-02-08T17:23:15.838Z,36.67
2023-02-08T17:25:43.966Z,53.97
2023-02-08T17:28:19.395Z,66.65
2023-02-08T17:30:48.719Z,81.55
2023-02-08T17:33:19.986Z,78.47
2023-02-08T17:35:49.833Z,67.68
2023-02-08T17:38:19.567Z,96.15
2023-02-08T17:40:47.491Z,96.50
2023-02-08T17:43:15.527Z,88.50
2023-02-08T17:45:44.548Z,87.97
2023-02-08T17:48:14.488Z,106.22
2023-02-08T17:50:46.544Z,96.13
2023-02-08T17:53:15.239Z,97.45
2023-02-08T17:55:44.135Z,111.55
2023-02-08T17:58:12.615Z,107.75
2023-02-08T18:00:40.424Z,96.00
2023-02-08T18:03:08.594Z,101.75
2023-02-08T18:05:36.980Z,148.18
2023-02-08T18:08:05.050Z,148.43
2023-02-08T18:10:32.751Z,132.27
2023-02-08T18:13:00.558Z,132.25
2023-02-08T18:15:28.409Z,163.70
2023-02-08T18:17:56.750Z,147.70
2023-02-08T18:20:24.331Z,171.75
2023-02-08T18:22:52.278Z,131.73
2023-02-08T18:25:20.628Z,115.10
2023-02-08T18:27:48.831Z,133.10
2023-02-08T18:30:16.392Z,142.45
2023-02-08T18:32:44.644Z,115.35
2023-02-08T18:35:12.440Z,101.00
2023-02-08T18:37:40.558Z,108.28
2023-02-08T18:40:09.854Z,121.47
2023-02-08T18:42:37.847Z,111.05
2023-02-08T18:45:07.080Z,117.47
2023-02-08T18:47:39.465Z,120.32
2023-02-08T18:50:07.498Z,117.35
2023-02-08T18:52:35.620Z,134.27
2023-02-08T18:55:03.567Z,147.02
2023-02-08T18:57:31.524Z,145.48
2023-02-08T18:59:59.199Z,170.25
2023-02-08T19:02:27.454Z,165.02
2023-02-08T19:04:55.395Z,147.20
2023-02-08T19:07:23.240Z,151.13
2023-02-08T19:09:51.224Z,153.85
2023-02-08T19:12:19.071Z,161.23
2023-02-08T19:14:50.771Z,166.70
2023-02-08T19:17:18.923Z,181.80
2023-02-08T19:19:47.047Z,177.70
2023-02-08T19:22:15.131Z,170.02
2023-02-08T19:24:43.086Z,167.43
2023-02-08T19:27:10.852Z,174.48
2023-02-08T19:29:39.116Z,170.32
2023-02-08T19:32:08.144Z,160.50
2023-02-08T19:34:36.164Z,166.18
2023-02-08T19:37:03.838Z,165.02
2023-02-08T19:39:31.791Z,172.43
2023-02-08T19:41:59.519Z,149.35
2023-02-08T19:44:30.305Z,163.60
2023-02-08T19:46:58.425Z,148.43
2023-02-08T19:49:27.322Z,155.20
2023-02-08T19:51:55.648Z,128.25
2023-02-08T19:54:24.302Z,146.15
2023-02-08T19:56:54.652Z,161.82
2023-02-08T19:59:28.423Z,131.07
2023-02-08T20:01:56.435Z,142.10
2023-02-08T20:04:25.018Z,111.93
2023-02-08T20:06:54.156Z,122.68
2023-02-08T20:09:22.528Z,93.38
2023-02-08T20:11:57.136Z,141.57
2023-02-08T20:14:29.225Z,126.40
2023-02-08T20:16:57.332Z,126.72
2023-02-08T20:19:25.821Z,131.90
2023-02-08T20:21:53.655Z,139.18
2023-02-08T20:24:21.568Z,134.10
2023-02-08T20:26:49.867Z,126.97
2023-02-08T20:29:18.468Z,140.23
2023-02-08T20:31:48.759Z,116.63
2023-02-08T20:34:18.916Z,123.53
2023-02-08T20:37:05.772Z,99.32
2023-02-08T20:39:36.178Z,112.30
2023-02-08T20:42:04.357Z,106.10
2023-02-08T20:44:32.533Z,108.55
2023-02-08T20:47:00.642Z,99.90
2023-02-08T20:49:30.814Z,106.38
2023-02-08T20:51:58.652Z,124.55
2023-02-08T20:54:26.535Z,110.40
2023-02-08T20:56:54.732Z,116.32
2023-02-08T20:59:22.781Z,112.45
2023-02-08T21:01:50.898Z,121.80
2023-02-08T21:04:23.242Z,118.18
2023-02-08T21:06:52.265Z,132.45
2023-02-08T21:09:21.128Z,126.78
2023-02-08T21:11:49.939Z,129.98
2023-02-08T21:14:20.943Z,118.38
2023-02-08T21:16:51.437Z,120.18
2023-02-08T21:19:20.944Z,140.02
2023-02-08T21:21:54.157Z,135.43
2023-02-08T21:24:23.955Z,130.20
2023-02-08T21:26:53.495Z,130.45
2023-02-08T21:29:22.368Z,141.00
2023-02-08T21:31:53.556Z,163.98
2023-02-08T21:34:21.804Z,181.80
2023-02-08T21:36:49.391Z,181.10
2023-02-08T21:39:17.592Z,184.23
2023-02-08T21:41:45.562Z,190.90
2023-02-08T21:44:13.508Z,190.18
2023-02-08T21:46:41.099Z,183.30
2023-02-08T21:49:28.869Z,168.93
2023-02-08T21:52:15.213Z,172.38
2023-02-08T21:54:44.302Z,154.38
2023-02-08T21:57:19.638Z,154.20
2023-02-08T21:59:50.371Z,149.85
2023-02-08T22:02:25.477Z,143.65
2023-02-08T22:04:55.377Z,146.05
2023-02-08T22:07:24.387Z,161.52
2023-02-08T22:09:52.520Z,221.98
2023-02-08T22:12:22.532Z,221.75
2023-02-08T22:14:51.034Z,214.50
2023-02-08T22:17:18.791Z,196.40
2023-02-08T22:19:46.668Z,150.88
2023-02-08T22:22:14.320Z,140.10
2023-02-08T22:24:42.289Z,210.55
2023-02-08T22:27:10.582Z,176.32
2023-02-08T22:29:38.441Z,167.13
2023-02-08T22:32:07.552Z,158.40
2023-02-08T22:34:37.150Z,135.68
2023-02-08T22:37:04.834Z,127.03
2023-02-08T22:39:34.238Z,122.15
2023-02-08T22:42:07.963Z,126.53
2023-02-08T22:44:37.007Z,105.93
2023-02-08T22:47:08.685Z,114.18
2023-02-08T22:49:37.142Z,113.75
2023-02-08T22:52:05.951Z,93.43
2023-02-08T22:54:34.779Z,98.25
2023-02-08T22:57:02.506Z,91.18
2023-02-08T22:59:30.480Z,83.90
2023-02-08T23:01:58.682Z,84.15
2023-02-08T23:04:26.599Z,79.82
2023-02-08T23:06:54.522Z,77.03
2023-02-08T23:09:22.839Z,73.82
2023-02-08T23:11:50.770Z,83.82
2023-02-08T23:14:19.106Z,73.03
2023-02-08T23:16:46.674Z,63.42
2023-02-08T23:19:16.694Z,68.20
2023-02-08T23:21:44.664Z,71.05
2023-02-08T23:24:12.986Z,81.15
2023-02-08T23:26:40.734Z,66.53
2023-02-08T23:29:08.564Z,68.57
2023-02-08T23:31:39.066Z,68.00
2023-02-08T23:34:07.021Z,67.85
2023-02-08T23:36:34.583Z,68.60
2023-02-08T23:39:03.461Z,70.75
2023-02-08T23:41:31.145Z,70.78
2023-02-08T23:43:59.010Z,70.38
2023-02-08T23:46:28.627Z,74.15
2023-02-08T23:48:57.328Z,74.68
2023-02-08T23:51:25.630Z,73.10
2023-02-08T23:53:55.312Z,69.93
2023-02-08T23:56:28.305Z,81.18
2023-02-08T23:58:58.338Z,75.25
